Antelope Valley, Nevada Weather observations

Data are for 10 minute period ending at time listed.
 Day   Time   Solar   Ave.   Ave.  Ave.  Vector  Max.   Baro.   Total    
  of    of     Rad.   Air    Rel.  Wind   Wind   Wind  Press.  Precip.   
Year   Day            Temp.  Hum.  Speed  Dir.   Gust                    
2016   (PST)  Kw/m2    F      %     mph   deg.    mph    mb.     in.     
-------------------------------------------------------------------------
 120   16:30   0.34   47.6    76   11.1    16    14.4   845.7    0.00 
 120   16:40   0.44   48.7    74   12.3   358    17.3   845.9    0.00 
 120   16:50   0.37   49.2    68   12.7     3    19.2   845.8    0.00 
 120   17:00   0.37   49.3    63   10.5    11    15.4   845.5    0.00 
 120   17:10   0.33   50.2    63   12.6    12    30.1   845.7    0.00 
 120   17:20   0.30   46.3    76   21.5   357    27.6   846.0    0.00 
 120   17:30   0.25   46.0    78   17.9    18    22.4   846.2    0.00 
 120   17:40   0.14   45.9    78   13.6    35    17.8   846.2    0.00 
 120   17:50   0.17   45.6    78   12.4    47    15.9   846.2    0.00 
 120   18:00   0.12   45.2    79   12.7    52    18.4   846.3    0.00 
 120   18:10   0.04   44.6    81   11.8    43    15.6   846.4    0.00 
 120   18:20   0.03   44.1    83   10.5    50    15.3   846.4    0.00 
 120   18:30   0.02   44.0    83    8.9    52    12.1   846.5    0.00 
 120   18:40   0.01   43.8    83    8.7    48    11.7   846.6    0.00 
 120   18:50   0.01   43.5    84    9.0    45    13.0   846.8    0.00 
 120   19:00   0.00   43.5    83   10.7    34    15.3   847.1    0.00 
 120   19:10   0.00   43.3    83    9.9    27    16.7   847.1    0.00 
 120   19:20   0.00   43.5    80   12.7    16    19.1   847.1    0.00 
 120   19:30   0.00   43.0    81   12.2    22    17.5   847.2    0.00 
 120   19:40   0.00   42.5    81   10.0    19    14.6   847.3    0.00 
 120   19:50   0.00   41.9    79    9.2    22    14.4   847.3    0.00 
 120   20:00   0.00   41.2    80    7.0    23    10.9   847.2    0.00 
 120   20:10   0.00   41.4    79   10.0     8    15.0   847.2    0.00 
 120   20:20   0.00   41.1    80   10.8    11    16.7   847.3    0.00 
 120   20:30   0.00   41.2    84   14.0    30    19.0   847.4    0.00 
 120   20:40   0.00   41.3    84   15.1    27    21.9   847.4    0.00 
 120   20:50   0.00   41.3    83   15.0    19    20.1   847.4    0.00 
 120   21:00   0.00   40.6    85   13.2    20    18.1   847.6    0.00 
 120   21:10   0.00   40.4    86   11.5    28    15.9   847.8    0.00 
 120   21:20   0.00   40.0    87   10.9    33    16.4   847.8    0.00 
 120   21:30   0.00   39.9    88    8.9    26    13.3   847.9    0.00 
 120   21:40   0.00   40.1    88    8.0    20    10.9   847.8    0.00 
 120   21:50   0.00   40.3    87    7.9    16    10.4   847.8    0.00 
 120   22:00   0.00   40.5    86    6.7    18     9.3   847.8    0.00 
 120   22:10   0.00   40.7    84    6.5    13     9.2   847.9    0.00 
 120   22:20   0.00   40.8    84    5.3    15     8.5   847.9    0.00 
 120   22:30   0.00   40.7    84    3.4    15     5.8   848.0    0.00 
 120   22:40   0.00   40.8    84    2.5    40     3.6   848.0    0.00 
 120   22:50   0.00   40.7    85    4.3    36     6.3   848.0    0.00 
 120   23:00   0.00   40.7    85    6.7    28     9.2   848.0    0.00 
 120   23:10   0.00   40.7    86    6.7    30     9.6   848.0    0.00 
 120   23:20   0.00   40.5    86    8.0    28    11.5   847.9    0.00 
 120   23:30   0.00   40.4    86    7.2    27     9.6   848.0    0.00 
 120   23:40   0.00   40.2    87    8.2    29    11.0   848.0    0.00 
 120   23:50   0.00   40.0    88    8.5    30    11.2   848.0    0.00 
 121    0:00   0.00   39.9    90    8.0    36    11.2   848.1    0.00 
 121    0:10   0.00   39.7    91    8.9    34    11.9   848.1    0.00 
 121    0:20   0.00   39.5    91    9.2    32    12.4   848.1    0.00 
 121    0:30   0.00   39.4    90    8.8    28    12.1   848.1    0.00 
 121    0:40   0.00   39.3    91    7.0    26    10.4   848.2    0.00 
 121    0:50   0.00   39.2    91    8.5    32    12.3   848.2    0.01 
 121    1:00   0.00   39.2    91    8.5    26    12.4   848.1    0.00 
 121    1:10   0.00   39.2    91    9.9    20    16.7   848.1    0.00 
 121    1:20   0.00   38.9    90   11.0    13    14.8   848.1    0.00 
 121    1:30   0.00   38.6    90   11.5    17    17.2   848.2    0.00 
 121    1:40   0.00   38.5    91    9.1    27    12.3   848.2    0.01 
 121    1:50   0.00   38.6    91    9.2    23    13.2   848.3    0.00 
 121    2:00   0.00   38.6    91    9.3    30    13.7   848.4    0.00 
 121    2:10   0.00   38.6    91    9.5    31    13.7   848.3    0.00 
 121    2:20   0.00   38.6    92    9.6    31    13.4   848.4    0.00 
 121    2:30   0.00   38.6    92    9.0    24    12.3   848.5    0.01 
 121    2:40   0.00   38.5    92    7.5    27    11.2   848.5    0.00 
 121    2:50   0.00   38.6    93    7.1    33     9.2   848.5    0.00 
 121    3:00   0.00   38.7    93    7.0    40    10.2   848.6    0.00 
 121    3:10   0.00   38.8    93    6.4    44     9.1   848.7    0.00 
 121    3:20   0.00   38.9    93    6.5    54     9.9   848.7    0.00 
 121    3:30   0.00   39.0    93    6.3    50     9.3   848.8    0.00 
 121    3:40   0.00   39.0    93    6.7    37     8.8   848.7    0.00 
 121    3:50   0.00   39.0    92    7.1    33    10.4   848.6    0.00 
 121    4:00   0.00   39.3    91    8.9    32    12.8   848.5    0.00 
 121    4:10   0.00   39.6    89   10.0    26    14.3   848.6    0.00 
 121    4:20   0.00   39.7    89   10.2    27    15.0   848.6    0.00 
 121    4:30   0.00   39.7    89   10.3    26    13.5   848.7    0.00 
 121    4:40   0.00   39.8    88   10.7    24    14.9   848.7    0.00 
 121    4:50   0.00   39.8    89   10.1    23    13.9   848.8    0.00 
 121    5:00   0.00   39.8    88   11.7    24    16.1   848.9    0.00 
 121    5:10   0.01   39.8    87   10.3    24    14.2   849.1    0.00 
 121    5:20   0.01   39.7    87   11.1    26    14.8   849.2    0.00 
 121    5:30   0.01   39.6    88    9.2    24    13.2   849.3    0.00 
 121    5:40   0.02   39.6    88   10.5    20    15.3   849.4    0.00 
 121    5:50   0.04   39.6    86   12.7    20    17.3   849.5    0.00 
 121    6:00   0.06   39.6    86   12.8    22    18.6   849.6    0.00 
 121    6:10   0.07   39.6    85   14.1    21    19.8   849.8    0.00 
 121    6:20   0.08   39.7    85   13.5    23    20.0   849.9    0.00 
 121    6:30   0.08   39.8    85   14.6    24    19.9   850.1    0.00 
 121    6:40   0.08   39.9    85   14.0    24    20.7   850.3    0.00 
 121    6:50   0.09   39.9    85   13.5    24    19.1   850.4    0.00 
 121    7:00   0.15   40.1    86   12.4    20    17.4   850.5    0.00 
 121    7:10   0.19   40.3    85   13.4    23    18.3   850.6    0.00 
 121    7:20   0.25   40.7    85   12.1    22    17.4   850.7    0.00 
 121    7:30   0.37   41.5    83   13.5    21    19.6   850.9    0.00 
 121    7:40   0.21   41.3    82   13.4    13    18.9   851.0    0.00 
 121    7:50   0.20   41.1    82   12.9    23    19.3   851.0    0.00 
 121    8:00   0.19   41.2    81   13.3    22    18.8   851.1    0.00 
 121    8:10   0.35   41.8    81   13.8    25    18.1   851.0    0.00 
 121    8:20   0.29   42.3    79   14.0    28    18.9   851.1    0.00 
 121    8:30   0.41   42.9    77   14.0    23    19.1   851.1    0.00 
 121    8:40   0.31   43.0    78   13.2    28    19.7   851.2    0.00 
 121    8:50   0.26   42.7    77   13.9    33    18.1   851.3    0.00 
 121    9:00   0.31   42.9    76   13.9    29    18.8   851.3    0.00 
 121    9:10   0.36   43.7    74   13.7    24    19.4   851.3    0.00 
 121    9:20   0.36   44.1    74   15.3    28    20.3   851.3    0.00 
 121    9:30   0.34   44.1    74   14.2    22    19.5   851.3    0.00 
 121    9:40   0.33   44.7    74   13.0    24    17.8   851.3    0.00 
 121    9:50   0.51   45.4    72   15.2    30    20.7   851.3    0.00 
 121   10:00   0.77   46.1    71   14.7    16    20.3   851.3    0.00 
 121   10:10   0.63   47.0    71   14.8    20    20.6   851.4    0.00 
 121   10:20   1.05   47.7    68   15.3    18    19.5   851.4    0.00 
 121   10:30   0.72   48.1    69   13.6    30    18.8   851.4    0.00 
 121   10:40   0.52   47.3    67   15.0    36    20.7   851.5    0.00 
 121   10:50   0.73   47.8    67   14.2    34    19.6   851.5    0.00 
 121   11:00   0.58   47.9    64   15.2    28    20.8   851.4    0.00 
 121   11:10   0.53   48.2    67   13.3    27    18.7   851.3    0.00 
 121   11:20   0.50   49.2    67   13.9    17    19.6   851.2    0.00 
 121   11:30   0.32   48.3    66   13.8    18    18.9   851.2    0.00 
 121   11:40   0.35   48.6    65   14.7    24    18.9   851.1    0.00 
 121   11:50   0.34   48.7    63   15.0    15    22.6   851.0    0.00 
 121   12:00   0.41   49.2    62   14.6    15    20.0   851.0    0.00 
 121   12:10   0.41   49.5    62   14.7    15    19.8   850.9    0.00 
 121   12:20   0.57   50.5    62   13.5    19    20.0   850.9    0.00 
 121   12:30   0.86   51.8    62   14.2    13    20.8   850.9    0.00 
 121   12:40   0.79   52.0    59   14.8    23    21.0   850.9    0.00 
 121   12:50   0.90   52.5    58   12.5    26    18.0   850.9    0.00 
 121   13:00   1.00   53.6    58   14.4    23    19.7   850.9    0.00 
 121   13:10   0.93   53.6    57   14.9    22    22.6   850.9    0.00 
 121   13:20   0.71   53.2    56   14.9    28    20.1   851.0    0.00 
 121   13:30   0.42   52.4    56   14.1    18    19.1   851.0    0.00 
 121   13:40   0.57   52.4    56   14.4    32    19.8   850.9    0.00 
 121   13:50   0.64   53.1    56   14.1    16    20.0   850.9    0.00 
 121   14:00   0.50   53.0    57   12.3    15    17.2   850.9    0.00 
 121   14:10   0.70   53.6    55   13.2    28    18.3   850.8    0.00 
 121   14:20   0.80   54.3    54   13.8    15    19.9   850.7    0.00 
 121   14:30   0.80   54.5    54   14.0    27    20.0   850.7    0.00 
 121   14:40   0.74   54.4    55   15.6    24    23.8   850.7    0.00 
 121   14:50   0.75   53.9    56   16.1    28    22.2   850.8    0.00 
 121   15:00   0.55   54.0    57   13.6    24    21.1   850.7    0.00 
 121   15:10   0.54   53.0    60   13.7    32    20.8   850.6    0.00 
 121   15:20   0.65   53.7    60   13.5    35    21.0   850.7    0.00 
 121   15:30   0.60   53.8    55   12.8    27    18.5   850.5    0.00 
 121   15:40   0.55   53.8    55   11.7    31    15.6   850.5    0.00 
 121   15:50   0.51   54.1    55   10.7    22    14.8   850.4    0.00 
 121   16:00   0.41   54.2    53   10.5    29    13.8   850.4    0.00 
 121   16:10   0.21   53.9    54    9.7    24    17.5   850.4    0.00 
 121   16:20   0.40   54.3    48   15.1    25    20.2   850.3    0.00 

Return to Antelope Valley graphs page.


Western Regional Climate Center,wrcc@dri.edu